sensor_id;sensor_type;location;lat;lon;timestamp;P1;durP1;ratioP1;P2;durP2;ratioP2
13683;SDS011;6914;53.552;9.908;2022-07-06T00:02:02;11.50;;;2.13;;
13683;SDS011;6914;53.552;9.908;2022-07-06T00:04:30;5.70;;;1.77;;
13683;SDS011;6914;53.552;9.908;2022-07-06T00:06:57;1.93;;;1.50;;
13683;SDS011;6914;53.552;9.908;2022-07-06T00:09:24;4.87;;;2.07;;
13683;SDS011;6914;53.552;9.908;2022-07-06T00:11:51;1.30;;;1.20;;
13683;SDS011;6914;53.552;9.908;2022-07-06T00:14:18;8.37;;;2.50;;
13683;SDS011;6914;53.552;9.908;2022-07-06T00:16:45;7.80;;;1.60;;
13683;SDS011;6914;53.552;9.908;2022-07-06T00:19:14;3.40;;;2.17;;
13683;SDS011;6914;53.552;9.908;2022-07-06T00:21:41;4.93;;;1.60;;
13683;SDS011;6914;53.552;9.908;2022-07-06T00:24:08;5.47;;;2.07;;
13683;SDS011;6914;53.552;9.908;2022-07-06T00:26:35;2.27;;;1.53;;
13683;SDS011;6914;53.552;9.908;2022-07-06T00:29:02;4.03;;;1.80;;
13683;SDS011;6914;53.552;9.908;2022-07-06T00:31:29;3.20;;;2.00;;
13683;SDS011;6914;53.552;9.908;2022-07-06T00:33:56;12.03;;;1.87;;
13683;SDS011;6914;53.552;9.908;2022-07-06T00:36:25;5.10;;;2.00;;
13683;SDS011;6914;53.552;9.908;2022-07-06T00:38:52;5.07;;;1.97;;
13683;SDS011;6914;53.552;9.908;2022-07-06T00:41:19;3.50;;;1.60;;
13683;SDS011;6914;53.552;9.908;2022-07-06T00:43:47;2.10;;;1.53;;
13683;SDS011;6914;53.552;9.908;2022-07-06T00:46:15;10.90;;;1.97;;
13683;SDS011;6914;53.552;9.908;2022-07-06T00:48:43;2.60;;;2.10;;
13683;SDS011;6914;53.552;9.908;2022-07-06T00:51:10;4.50;;;1.83;;
13683;SDS011;6914;53.552;9.908;2022-07-06T00:53:39;6.30;;;1.43;;
13683;SDS011;6914;53.552;9.908;2022-07-06T00:56:07;5.13;;;1.90;;
13683;SDS011;6914;53.552;9.908;2022-07-06T00:58:34;5.77;;;2.03;;
13683;SDS011;6914;53.552;9.908;2022-07-06T01:01:02;10.03;;;2.37;;
13683;SDS011;6914;53.552;9.908;2022-07-06T01:03:29;3.83;;;1.90;;
13683;SDS011;6914;53.552;9.908;2022-07-06T01:05:56;5.27;;;1.50;;
13683;SDS011;6914;53.552;9.908;2022-07-06T01:08:23;5.80;;;1.80;;
13683;SDS011;6914;53.552;9.908;2022-07-06T01:10:52;4.63;;;2.00;;
13683;SDS011;6914;53.552;9.908;2022-07-06T01:13:19;8.63;;;1.80;;
13683;SDS011;6914;53.552;9.908;2022-07-06T01:15:46;7.23;;;1.97;;
13683;SDS011;6914;53.552;9.908;2022-07-06T01:18:13;11.00;;;2.00;;
13683;SDS011;6914;53.552;9.908;2022-07-06T01:20:42;4.27;;;1.77;;
13683;SDS011;6914;53.552;9.908;2022-07-06T01:23:09;7.43;;;2.00;;
13683;SDS011;6914;53.552;9.908;2022-07-06T01:25:36;11.63;;;1.97;;
13683;SDS011;6914;53.552;9.908;2022-07-06T01:28:03;6.47;;;1.70;;
13683;SDS011;6914;53.552;9.908;2022-07-06T01:30:31;6.77;;;2.17;;
13683;SDS011;6914;53.552;9.908;2022-07-06T01:32:58;5.07;;;1.50;;
13683;SDS011;6914;53.552;9.908;2022-07-06T01:35:25;12.07;;;2.00;;
13683;SDS011;6914;53.552;9.908;2022-07-06T01:37:57;2.10;;;1.67;;
13683;SDS011;6914;53.552;9.908;2022-07-06T01:40:24;7.13;;;2.17;;
13683;SDS011;6914;53.552;9.908;2022-07-06T01:42:51;6.57;;;2.03;;
13683;SDS011;6914;53.552;9.908;2022-07-06T01:45:18;7.60;;;2.00;;
13683;SDS011;6914;53.552;9.908;2022-07-06T01:47:45;2.93;;;2.00;;
13683;SDS011;6914;53.552;9.908;2022-07-06T01:50:12;8.63;;;2.50;;
13683;SDS011;6914;53.552;9.908;2022-07-06T01:52:39;6.53;;;1.83;;
13683;SDS011;6914;53.552;9.908;2022-07-06T01:55:08;3.13;;;1.50;;
13683;SDS011;6914;53.552;9.908;2022-07-06T01:57:35;5.73;;;2.07;;
13683;SDS011;6914;53.552;9.908;2022-07-06T02:00:04;4.67;;;1.60;;
13683;SDS011;6914;53.552;9.908;2022-07-06T02:02:32;4.93;;;2.07;;
13683;SDS011;6914;53.552;9.908;2022-07-06T02:04:59;4.50;;;2.60;;
13683;SDS011;6914;53.552;9.908;2022-07-06T02:07:26;5.37;;;1.77;;
13683;SDS011;6914;53.552;9.908;2022-07-06T02:09:53;8.63;;;2.27;;
13683;SDS011;6914;53.552;9.908;2022-07-06T02:12:21;8.97;;;2.27;;
13683;SDS011;6914;53.552;9.908;2022-07-06T02:14:48;3.70;;;2.07;;
13683;SDS011;6914;53.552;9.908;2022-07-06T02:17:16;5.40;;;2.10;;
13683;SDS011;6914;53.552;9.908;2022-07-06T02:19:43;7.50;;;2.00;;
13683;SDS011;6914;53.552;9.908;2022-07-06T02:22:10;3.00;;;1.77;;
13683;SDS011;6914;53.552;9.908;2022-07-06T02:24:37;10.93;;;2.67;;
13683;SDS011;6914;53.552;9.908;2022-07-06T02:27:04;4.13;;;2.10;;
13683;SDS011;6914;53.552;9.908;2022-07-06T02:29:32;8.80;;;2.37;;
13683;SDS011;6914;53.552;9.908;2022-07-06T02:32:00;8.03;;;2.10;;
13683;SDS011;6914;53.552;9.908;2022-07-06T02:34:27;3.27;;;2.13;;
13683;SDS011;6914;53.552;9.908;2022-07-06T02:36:54;2.50;;;1.90;;
13683;SDS011;6914;53.552;9.908;2022-07-06T02:39:21;5.03;;;2.30;;
13683;SDS011;6914;53.552;9.908;2022-07-06T02:41:48;4.93;;;1.80;;
13683;SDS011;6914;53.552;9.908;2022-07-06T02:44:15;6.57;;;1.90;;
13683;SDS011;6914;53.552;9.908;2022-07-06T02:46:43;8.10;;;2.10;;
13683;SDS011;6914;53.552;9.908;2022-07-06T02:49:11;9.63;;;2.40;;
13683;SDS011;6914;53.552;9.908;2022-07-06T02:51:38;7.47;;;1.83;;
13683;SDS011;6914;53.552;9.908;2022-07-06T02:54:05;3.60;;;1.90;;
13683;SDS011;6914;53.552;9.908;2022-07-06T02:56:32;9.40;;;2.70;;
13683;SDS011;6914;53.552;9.908;2022-07-06T02:58:59;3.50;;;1.90;;
13683;SDS011;6914;53.552;9.908;2022-07-06T03:01:26;6.83;;;2.40;;
13683;SDS011;6914;53.552;9.908;2022-07-06T03:03:55;2.17;;;2.03;;
13683;SDS011;6914;53.552;9.908;2022-07-06T03:06:21;5.47;;;2.27;;
13683;SDS011;6914;53.552;9.908;2022-07-06T03:08:49;7.03;;;2.00;;
13683;SDS011;6914;53.552;9.908;2022-07-06T03:11:16;6.07;;;2.10;;
13683;SDS011;6914;53.552;9.908;2022-07-06T03:13:43;3.97;;;2.00;;
13683;SDS011;6914;53.552;9.908;2022-07-06T03:16:10;4.00;;;2.20;;
13683;SDS011;6914;53.552;9.908;2022-07-06T03:18:37;6.10;;;2.37;;
13683;SDS011;6914;53.552;9.908;2022-07-06T03:21:06;11.33;;;2.67;;
13683;SDS011;6914;53.552;9.908;2022-07-06T03:23:33;3.97;;;2.10;;
13683;SDS011;6914;53.552;9.908;2022-07-06T03:26:00;4.23;;;1.80;;
13683;SDS011;6914;53.552;9.908;2022-07-06T03:28:28;6.93;;;2.23;;
13683;SDS011;6914;53.552;9.908;2022-07-06T03:30:54;4.93;;;2.00;;
13683;SDS011;6914;53.552;9.908;2022-07-06T03:33:22;16.73;;;2.70;;
13683;SDS011;6914;53.552;9.908;2022-07-06T03:35:49;5.00;;;2.30;;
13683;SDS011;6914;53.552;9.908;2022-07-06T03:38:17;5.03;;;2.10;;
13683;SDS011;6914;53.552;9.908;2022-07-06T03:40:45;5.70;;;2.07;;
13683;SDS011;6914;53.552;9.908;2022-07-06T03:43:12;4.40;;;1.97;;
13683;SDS011;6914;53.552;9.908;2022-07-06T03:45:39;10.17;;;2.57;;
13683;SDS011;6914;53.552;9.908;2022-07-06T03:48:06;4.03;;;1.87;;
13683;SDS011;6914;53.552;9.908;2022-07-06T03:50:33;4.77;;;2.10;;
13683;SDS011;6914;53.552;9.908;2022-07-06T03:53:00;8.60;;;1.90;;
13683;SDS011;6914;53.552;9.908;2022-07-06T03:55:28;6.57;;;1.50;;
13683;SDS011;6914;53.552;9.908;2022-07-06T03:57:56;3.73;;;1.53;;
13683;SDS011;6914;53.552;9.908;2022-07-06T04:00:23;7.30;;;2.17;;
13683;SDS011;6914;53.552;9.908;2022-07-06T04:02:50;12.33;;;2.07;;
13683;SDS011;6914;53.552;9.908;2022-07-06T04:05:17;6.90;;;1.77;;
13683;SDS011;6914;53.552;9.908;2022-07-06T04:07:46;5.33;;;1.80;;
13683;SDS011;6914;53.552;9.908;2022-07-06T04:10:13;4.70;;;2.30;;
13683;SDS011;6914;53.552;9.908;2022-07-06T04:12:42;4.10;;;2.70;;
13683;SDS011;6914;53.552;9.908;2022-07-06T04:15:10;8.80;;;2.40;;
13683;SDS011;6914;53.552;9.908;2022-07-06T04:17:38;5.70;;;2.30;;
13683;SDS011;6914;53.552;9.908;2022-07-06T04:20:18;4.43;;;2.80;;
13683;SDS011;6914;53.552;9.908;2022-07-06T04:22:45;5.47;;;2.00;;
13683;SDS011;6914;53.552;9.908;2022-07-06T04:25:12;2.20;;;1.97;;
13683;SDS011;6914;53.552;9.908;2022-07-06T04:27:41;2.87;;;2.50;;
13683;SDS011;6914;53.552;9.908;2022-07-06T04:30:09;12.97;;;2.70;;
13683;SDS011;6914;53.552;9.908;2022-07-06T04:32:37;5.90;;;1.60;;
13683;SDS011;6914;53.552;9.908;2022-07-06T04:35:04;3.80;;;2.87;;
13683;SDS011;6914;53.552;9.908;2022-07-06T04:37:32;13.60;;;2.03;;
13683;SDS011;6914;53.552;9.908;2022-07-06T04:39:59;4.50;;;1.73;;
13683;SDS011;6914;53.552;9.908;2022-07-06T04:42:26;7.23;;;1.93;;
13683;SDS011;6914;53.552;9.908;2022-07-06T04:44:54;3.27;;;1.20;;
13683;SDS011;6914;53.552;9.908;2022-07-06T04:47:22;6.47;;;1.97;;
13683;SDS011;6914;53.552;9.908;2022-07-06T04:49:49;11.40;;;2.23;;
13683;SDS011;6914;53.552;9.908;2022-07-06T04:52:16;7.27;;;1.60;;
13683;SDS011;6914;53.552;9.908;2022-07-06T04:54:43;4.10;;;2.10;;
13683;SDS011;6914;53.552;9.908;2022-07-06T04:57:10;5.73;;;1.83;;
13683;SDS011;6914;53.552;9.908;2022-07-06T04:59:37;7.23;;;2.40;;
13683;SDS011;6914;53.552;9.908;2022-07-06T05:02:05;2.10;;;1.90;;
13683;SDS011;6914;53.552;9.908;2022-07-06T05:04:33;10.60;;;2.43;;
13683;SDS011;6914;53.552;9.908;2022-07-06T05:07:00;3.67;;;1.97;;
13683;SDS011;6914;53.552;9.908;2022-07-06T05:09:27;3.40;;;1.83;;
13683;SDS011;6914;53.552;9.908;2022-07-06T05:11:54;3.40;;;1.50;;
13683;SDS011;6914;53.552;9.908;2022-07-06T05:14:21;5.63;;;1.90;;
13683;SDS011;6914;53.552;9.908;2022-07-06T05:16:48;2.27;;;2.00;;
13683;SDS011;6914;53.552;9.908;2022-07-06T05:19:17;7.53;;;2.50;;
13683;SDS011;6914;53.552;9.908;2022-07-06T05:21:44;5.23;;;2.10;;
13683;SDS011;6914;53.552;9.908;2022-07-06T05:24:11;5.27;;;1.93;;
13683;SDS011;6914;53.552;9.908;2022-07-06T05:26:38;14.20;;;1.93;;
13683;SDS011;6914;53.552;9.908;2022-07-06T05:29:05;6.83;;;1.87;;
13683;SDS011;6914;53.552;9.908;2022-07-06T05:31:32;4.93;;;1.70;;
13683;SDS011;6914;53.552;9.908;2022-07-06T05:33:59;9.63;;;2.20;;
13683;SDS011;6914;53.552;9.908;2022-07-06T05:36:28;4.43;;;2.00;;
13683;SDS011;6914;53.552;9.908;2022-07-06T05:38:55;10.13;;;2.20;;
13683;SDS011;6914;53.552;9.908;2022-07-06T05:41:22;4.80;;;1.70;;
13683;SDS011;6914;53.552;9.908;2022-07-06T05:43:49;10.33;;;1.80;;
13683;SDS011;6914;53.552;9.908;2022-07-06T05:46:16;3.00;;;1.50;;
13683;SDS011;6914;53.552;9.908;2022-07-06T05:48:43;6.97;;;1.70;;
13683;SDS011;6914;53.552;9.908;2022-07-06T05:51:29;3.30;;;1.90;;
13683;SDS011;6914;53.552;9.908;2022-07-06T05:53:56;8.77;;;1.90;;
13683;SDS011;6914;53.552;9.908;2022-07-06T05:56:23;4.67;;;1.40;;
13683;SDS011;6914;53.552;9.908;2022-07-06T05:58:50;5.43;;;2.30;;
13683;SDS011;6914;53.552;9.908;2022-07-06T06:01:17;12.67;;;2.03;;
13683;SDS011;6914;53.552;9.908;2022-07-06T06:03:44;2.50;;;1.20;;
13683;SDS011;6914;53.552;9.908;2022-07-06T06:06:11;4.17;;;1.70;;
13683;SDS011;6914;53.552;9.908;2022-07-06T06:08:40;4.60;;;1.93;;
13683;SDS011;6914;53.552;9.908;2022-07-06T06:11:07;3.80;;;2.00;;
13683;SDS011;6914;53.552;9.908;2022-07-06T06:13:34;6.27;;;1.60;;
13683;SDS011;6914;53.552;9.908;2022-07-06T06:16:01;2.73;;;1.70;;
13683;SDS011;6914;53.552;9.908;2022-07-06T06:18:28;5.37;;;1.80;;
13683;SDS011;6914;53.552;9.908;2022-07-06T06:20:55;5.27;;;1.87;;
13683;SDS011;6914;53.552;9.908;2022-07-06T06:23:22;4.57;;;1.17;;
13683;SDS011;6914;53.552;9.908;2022-07-06T06:25:51;8.47;;;1.30;;
13683;SDS011;6914;53.552;9.908;2022-07-06T06:28:18;2.00;;;0.90;;
13683;SDS011;6914;53.552;9.908;2022-07-06T06:30:45;1.80;;;0.87;;
13683;SDS011;6914;53.552;9.908;2022-07-06T06:33:13;2.93;;;0.97;;
13683;SDS011;6914;53.552;9.908;2022-07-06T06:35:42;4.37;;;1.50;;
13683;SDS011;6914;53.552;9.908;2022-07-06T06:38:10;3.07;;;1.00;;
13683;SDS011;6914;53.552;9.908;2022-07-06T06:40:38;10.23;;;1.53;;
13683;SDS011;6914;53.552;9.908;2022-07-06T06:43:06;2.93;;;1.10;;
13683;SDS011;6914;53.552;9.908;2022-07-06T06:45:33;4.73;;;1.37;;
13683;SDS011;6914;53.552;9.908;2022-07-06T06:48:01;10.70;;;1.40;;
13683;SDS011;6914;53.552;9.908;2022-07-06T06:50:28;10.03;;;1.83;;
13683;SDS011;6914;53.552;9.908;2022-07-06T06:52:55;2.13;;;0.80;;
13683;SDS011;6914;53.552;9.908;2022-07-06T06:55:22;11.63;;;1.30;;
13683;SDS011;6914;53.552;9.908;2022-07-06T06:57:49;5.40;;;1.83;;
13683;SDS011;6914;53.552;9.908;2022-07-06T07:00:18;3.50;;;1.37;;
13683;SDS011;6914;53.552;9.908;2022-07-06T07:02:45;8.23;;;1.07;;
13683;SDS011;6914;53.552;9.908;2022-07-06T07:05:13;2.93;;;1.23;;
13683;SDS011;6914;53.552;9.908;2022-07-06T07:07:40;6.87;;;1.17;;
13683;SDS011;6914;53.552;9.908;2022-07-06T07:10:08;7.00;;;1.37;;
13683;SDS011;6914;53.552;9.908;2022-07-06T07:12:41;15.33;;;1.43;;
13683;SDS011;6914;53.552;9.908;2022-07-06T07:15:09;4.60;;;1.13;;
13683;SDS011;6914;53.552;9.908;2022-07-06T07:17:38;7.20;;;1.47;;
13683;SDS011;6914;53.552;9.908;2022-07-06T07:20:05;6.37;;;2.10;;
13683;SDS011;6914;53.552;9.908;2022-07-06T07:22:33;2.60;;;1.27;;
13683;SDS011;6914;53.552;9.908;2022-07-06T07:25:00;2.53;;;1.20;;
13683;SDS011;6914;53.552;9.908;2022-07-06T07:27:28;4.20;;;1.50;;
13683;SDS011;6914;53.552;9.908;2022-07-06T07:29:55;2.87;;;1.20;;
13683;SDS011;6914;53.552;9.908;2022-07-06T07:32:22;8.73;;;1.60;;
13683;SDS011;6914;53.552;9.908;2022-07-06T07:34:50;4.00;;;1.40;;
13683;SDS011;6914;53.552;9.908;2022-07-06T07:37:17;3.53;;;1.27;;
13683;SDS011;6914;53.552;9.908;2022-07-06T07:39:45;3.17;;;1.17;;
13683;SDS011;6914;53.552;9.908;2022-07-06T07:42:12;7.10;;;1.33;;
13683;SDS011;6914;53.552;9.908;2022-07-06T07:44:39;2.53;;;1.20;;
13683;SDS011;6914;53.552;9.908;2022-07-06T07:47:06;7.30;;;1.37;;
13683;SDS011;6914;53.552;9.908;2022-07-06T07:49:33;3.83;;;1.03;;
13683;SDS011;6914;53.552;9.908;2022-07-06T07:52:02;4.70;;;2.10;;
13683;SDS011;6914;53.552;9.908;2022-07-06T07:54:29;1.57;;;1.33;;
13683;SDS011;6914;53.552;9.908;2022-07-06T07:56:56;1.30;;;1.00;;
13683;SDS011;6914;53.552;9.908;2022-07-06T07:59:24;2.33;;;1.00;;
13683;SDS011;6914;53.552;9.908;2022-07-06T08:01:52;1.17;;;0.80;;
13683;SDS011;6914;53.552;9.908;2022-07-06T08:04:19;1.27;;;0.83;;
13683;SDS011;6914;53.552;9.908;2022-07-06T08:06:46;1.53;;;0.80;;
13683;SDS011;6914;53.552;9.908;2022-07-06T08:09:15;1.97;;;0.90;;
13683;SDS011;6914;53.552;9.908;2022-07-06T08:11:43;3.20;;;2.60;;
13683;SDS011;6914;53.552;9.908;2022-07-06T08:14:10;2.37;;;1.00;;
13683;SDS011;6914;53.552;9.908;2022-07-06T08:16:39;5.57;;;1.53;;
13683;SDS011;6914;53.552;9.908;2022-07-06T08:19:06;1.17;;;1.00;;
13683;SDS011;6914;53.552;9.908;2022-07-06T08:21:34;1.10;;;1.03;;
13683;SDS011;6914;53.552;9.908;2022-07-06T08:24:01;2.10;;;1.00;;
13683;SDS011;6914;53.552;9.908;2022-07-06T08:26:30;5.10;;;1.20;;
13683;SDS011;6914;53.552;9.908;2022-07-06T08:28:58;2.00;;;1.40;;
13683;SDS011;6914;53.552;9.908;2022-07-06T08:31:25;3.20;;;1.10;;
13683;SDS011;6914;53.552;9.908;2022-07-06T08:33:52;0.90;;;0.90;;
13683;SDS011;6914;53.552;9.908;2022-07-06T08:36:20;2.23;;;1.00;;
13683;SDS011;6914;53.552;9.908;2022-07-06T08:38:48;1.53;;;1.00;;
13683;SDS011;6914;53.552;9.908;2022-07-06T08:41:16;2.00;;;0.80;;
13683;SDS011;6914;53.552;9.908;2022-07-06T08:43:45;2.77;;;1.10;;
13683;SDS011;6914;53.552;9.908;2022-07-06T08:46:13;6.87;;;1.20;;
13683;SDS011;6914;53.552;9.908;2022-07-06T08:48:41;2.43;;;0.80;;
13683;SDS011;6914;53.552;9.908;2022-07-06T08:51:08;1.87;;;1.13;;
13683;SDS011;6914;53.552;9.908;2022-07-06T08:53:35;4.50;;;1.57;;
13683;SDS011;6914;53.552;9.908;2022-07-06T08:56:03;6.40;;;1.50;;
13683;SDS011;6914;53.552;9.908;2022-07-06T08:58:30;2.10;;;1.10;;
13683;SDS011;6914;53.552;9.908;2022-07-06T09:01:00;3.00;;;1.10;;
13683;SDS011;6914;53.552;9.908;2022-07-06T09:03:27;3.53;;;1.17;;
13683;SDS011;6914;53.552;9.908;2022-07-06T09:05:56;0.97;;;0.97;;
13683;SDS011;6914;53.552;9.908;2022-07-06T09:08:27;5.00;;;1.37;;
13683;SDS011;6914;53.552;9.908;2022-07-06T09:10:57;2.60;;;1.30;;
13683;SDS011;6914;53.552;9.908;2022-07-06T09:13:24;1.47;;;1.37;;
13683;SDS011;6914;53.552;9.908;2022-07-06T09:15:51;4.60;;;1.30;;
13683;SDS011;6914;53.552;9.908;2022-07-06T09:18:19;5.67;;;1.27;;
13683;SDS011;6914;53.552;9.908;2022-07-06T09:20:47;1.67;;;1.00;;
13683;SDS011;6914;53.552;9.908;2022-07-06T09:23:15;7.37;;;1.60;;
13683;SDS011;6914;53.552;9.908;2022-07-06T09:25:43;0.80;;;0.80;;
13683;SDS011;6914;53.552;9.908;2022-07-06T09:28:14;3.87;;;1.20;;
13683;SDS011;6914;53.552;9.908;2022-07-06T09:30:41;5.40;;;1.37;;
13683;SDS011;6914;53.552;9.908;2022-07-06T09:33:09;1.43;;;1.10;;
13683;SDS011;6914;53.552;9.908;2022-07-06T09:35:39;4.97;;;1.17;;
13683;SDS011;6914;53.552;9.908;2022-07-06T09:38:08;1.47;;;0.90;;
13683;SDS011;6914;53.552;9.908;2022-07-06T09:40:36;2.40;;;1.37;;
13683;SDS011;6914;53.552;9.908;2022-07-06T09:43:12;1.07;;;0.70;;
13683;SDS011;6914;53.552;9.908;2022-07-06T09:45:41;0.70;;;0.60;;
13683;SDS011;6914;53.552;9.908;2022-07-06T09:48:10;2.17;;;1.00;;
13683;SDS011;6914;53.552;9.908;2022-07-06T09:50:45;5.80;;;1.33;;
13683;SDS011;6914;53.552;9.908;2022-07-06T09:53:13;2.03;;;0.73;;
13683;SDS011;6914;53.552;9.908;2022-07-06T09:55:44;4.33;;;1.57;;
13683;SDS011;6914;53.552;9.908;2022-07-06T09:58:12;3.23;;;1.27;;
13683;SDS011;6914;53.552;9.908;2022-07-06T10:00:39;2.07;;;0.77;;
13683;SDS011;6914;53.552;9.908;2022-07-06T10:03:07;2.10;;;1.00;;
13683;SDS011;6914;53.552;9.908;2022-07-06T10:05:36;5.23;;;0.80;;
13683;SDS011;6914;53.552;9.908;2022-07-06T10:08:06;7.77;;;1.67;;
13683;SDS011;6914;53.552;9.908;2022-07-06T10:10:35;1.00;;;0.90;;
13683;SDS011;6914;53.552;9.908;2022-07-06T10:13:03;1.50;;;0.90;;
13683;SDS011;6914;53.552;9.908;2022-07-06T10:15:37;6.70;;;1.27;;
13683;SDS011;6914;53.552;9.908;2022-07-06T10:18:07;1.13;;;0.80;;
13683;SDS011;6914;53.552;9.908;2022-07-06T10:20:36;0.80;;;0.80;;
13683;SDS011;6914;53.552;9.908;2022-07-06T10:23:07;2.03;;;0.70;;
13683;SDS011;6914;53.552;9.908;2022-07-06T10:25:36;0.83;;;0.67;;
13683;SDS011;6914;53.552;9.908;2022-07-06T10:28:03;5.23;;;0.80;;
13683;SDS011;6914;53.552;9.908;2022-07-06T10:30:39;1.60;;;1.13;;
13683;SDS011;6914;53.552;9.908;2022-07-06T10:33:12;3.80;;;1.07;;
13683;SDS011;6914;53.552;9.908;2022-07-06T10:35:41;12.03;;;2.20;;
13683;SDS011;6914;53.552;9.908;2022-07-06T10:38:18;3.70;;;1.07;;
13683;SDS011;6914;53.552;9.908;2022-07-06T10:40:48;4.23;;;1.40;;
13683;SDS011;6914;53.552;9.908;2022-07-06T10:43:34;2.60;;;0.70;;
13683;SDS011;6914;53.552;9.908;2022-07-06T10:46:10;0.77;;;0.77;;
13683;SDS011;6914;53.552;9.908;2022-07-06T10:48:39;1.20;;;1.10;;
13683;SDS011;6914;53.552;9.908;2022-07-06T10:51:09;4.40;;;0.90;;
13683;SDS011;6914;53.552;9.908;2022-07-06T10:53:40;3.50;;;1.00;;
13683;SDS011;6914;53.552;9.908;2022-07-06T10:56:10;3.13;;;1.57;;
13683;SDS011;6914;53.552;9.908;2022-07-06T10:58:41;6.20;;;0.93;;
13683;SDS011;6914;53.552;9.908;2022-07-06T11:01:15;5.03;;;0.90;;
13683;SDS011;6914;53.552;9.908;2022-07-06T11:03:42;1.57;;;0.80;;
13683;SDS011;6914;53.552;9.908;2022-07-06T11:06:11;4.10;;;0.80;;
13683;SDS011;6914;53.552;9.908;2022-07-06T11:08:51;4.83;;;0.90;;
13683;SDS011;6914;53.552;9.908;2022-07-06T11:11:21;2.00;;;1.07;;
13683;SDS011;6914;53.552;9.908;2022-07-06T11:13:52;10.90;;;1.33;;
13683;SDS011;6914;53.552;9.908;2022-07-06T11:16:28;6.00;;;1.33;;
13683;SDS011;6914;53.552;9.908;2022-07-06T11:19:02;8.17;;;0.90;;
13683;SDS011;6914;53.552;9.908;2022-07-06T11:21:39;6.20;;;1.00;;
13683;SDS011;6914;53.552;9.908;2022-07-06T11:24:12;3.23;;;0.90;;
13683;SDS011;6914;53.552;9.908;2022-07-06T11:26:39;3.73;;;0.80;;
13683;SDS011;6914;53.552;9.908;2022-07-06T11:29:09;4.53;;;1.00;;
13683;SDS011;6914;53.552;9.908;2022-07-06T11:31:37;2.13;;;1.00;;
13683;SDS011;6914;53.552;9.908;2022-07-06T11:34:06;9.93;;;1.03;;
13683;SDS011;6914;53.552;9.908;2022-07-06T11:36:35;2.87;;;0.90;;
13683;SDS011;6914;53.552;9.908;2022-07-06T11:39:03;2.37;;;1.03;;
13683;SDS011;6914;53.552;9.908;2022-07-06T11:41:33;3.90;;;0.90;;
13683;SDS011;6914;53.552;9.908;2022-07-06T11:44:01;4.87;;;1.10;;
13683;SDS011;6914;53.552;9.908;2022-07-06T11:46:29;11.43;;;0.93;;
13683;SDS011;6914;53.552;9.908;2022-07-06T11:48:58;4.70;;;0.90;;
13683;SDS011;6914;53.552;9.908;2022-07-06T11:51:28;2.87;;;0.93;;
13683;SDS011;6914;53.552;9.908;2022-07-06T11:53:58;2.20;;;0.90;;
13683;SDS011;6914;53.552;9.908;2022-07-06T11:56:26;2.97;;;0.90;;
13683;SDS011;6914;53.552;9.908;2022-07-06T11:58:56;6.30;;;0.87;;
13683;SDS011;6914;53.552;9.908;2022-07-06T12:01:24;2.10;;;0.60;;
13683;SDS011;6914;53.552;9.908;2022-07-06T12:03:53;6.50;;;0.97;;
13683;SDS011;6914;53.552;9.908;2022-07-06T12:06:24;1.33;;;0.50;;
13683;SDS011;6914;53.552;9.908;2022-07-06T12:08:52;1.50;;;0.77;;
13683;SDS011;6914;53.552;9.908;2022-07-06T12:11:21;2.90;;;1.10;;
13683;SDS011;6914;53.552;9.908;2022-07-06T12:13:50;1.00;;;0.67;;
13683;SDS011;6914;53.552;9.908;2022-07-06T12:16:20;3.53;;;1.03;;
13683;SDS011;6914;53.552;9.908;2022-07-06T12:18:49;5.03;;;0.80;;
13683;SDS011;6914;53.552;9.908;2022-07-06T12:21:17;1.63;;;0.70;;
13683;SDS011;6914;53.552;9.908;2022-07-06T12:23:47;2.70;;;0.60;;
13683;SDS011;6914;53.552;9.908;2022-07-06T12:26:16;3.53;;;0.93;;
13683;SDS011;6914;53.552;9.908;2022-07-06T12:28:45;5.57;;;0.80;;
13683;SDS011;6914;53.552;9.908;2022-07-06T12:33:58;1.63;;;0.60;;
13683;SDS011;6914;53.552;9.908;2022-07-06T12:36:25;5.53;;;1.20;;
13683;SDS011;6914;53.552;9.908;2022-07-06T12:38:53;0.93;;;0.80;;
13683;SDS011;6914;53.552;9.908;2022-07-06T12:41:25;1.60;;;0.60;;
13683;SDS011;6914;53.552;9.908;2022-07-06T12:44:01;1.33;;;0.57;;
13683;SDS011;6914;53.552;9.908;2022-07-06T12:46:30;6.53;;;1.10;;
13683;SDS011;6914;53.552;9.908;2022-07-06T12:49:01;7.13;;;0.67;;
13683;SDS011;6914;53.552;9.908;2022-07-06T12:54:15;2.60;;;0.50;;
13683;SDS011;6914;53.552;9.908;2022-07-06T12:56:56;3.17;;;0.60;;
13683;SDS011;6914;53.552;9.908;2022-07-06T12:59:34;6.10;;;0.73;;
13683;SDS011;6914;53.552;9.908;2022-07-06T13:02:04;1.20;;;0.80;;
13683;SDS011;6914;53.552;9.908;2022-07-06T13:04:33;2.90;;;0.80;;
13683;SDS011;6914;53.552;9.908;2022-07-06T13:07:00;5.90;;;0.60;;
13683;SDS011;6914;53.552;9.908;2022-07-06T13:09:28;0.90;;;0.53;;
13683;SDS011;6914;53.552;9.908;2022-07-06T13:11:55;0.70;;;0.70;;
13683;SDS011;6914;53.552;9.908;2022-07-06T13:14:22;4.83;;;0.97;;
13683;SDS011;6914;53.552;9.908;2022-07-06T13:16:50;1.67;;;0.57;;
13683;SDS011;6914;53.552;9.908;2022-07-06T13:19:20;4.30;;;1.00;;
13683;SDS011;6914;53.552;9.908;2022-07-06T13:21:47;5.30;;;0.77;;
13683;SDS011;6914;53.552;9.908;2022-07-06T13:24:15;3.17;;;0.93;;
13683;SDS011;6914;53.552;9.908;2022-07-06T13:26:42;3.93;;;0.73;;
13683;SDS011;6914;53.552;9.908;2022-07-06T13:29:09;1.20;;;0.70;;
13683;SDS011;6914;53.552;9.908;2022-07-06T13:31:37;1.23;;;0.70;;
13683;SDS011;6914;53.552;9.908;2022-07-06T13:34:06;5.13;;;0.90;;
13683;SDS011;6914;53.552;9.908;2022-07-06T13:36:35;2.70;;;0.80;;
13683;SDS011;6914;53.552;9.908;2022-07-06T13:39:02;1.27;;;0.63;;
13683;SDS011;6914;53.552;9.908;2022-07-06T13:41:30;1.00;;;0.60;;
13683;SDS011;6914;53.552;9.908;2022-07-06T13:43:57;4.33;;;0.60;;
13683;SDS011;6914;53.552;9.908;2022-07-06T13:46:25;17.17;;;0.90;;
13683;SDS011;6914;53.552;9.908;2022-07-06T13:48:53;1.60;;;0.67;;
13683;SDS011;6914;53.552;9.908;2022-07-06T13:51:20;1.03;;;0.80;;
13683;SDS011;6914;53.552;9.908;2022-07-06T13:53:48;4.10;;;0.77;;
13683;SDS011;6914;53.552;9.908;2022-07-06T13:56:15;9.40;;;0.97;;
13683;SDS011;6914;53.552;9.908;2022-07-06T13:58:43;2.20;;;0.67;;
13683;SDS011;6914;53.552;9.908;2022-07-06T14:01:10;1.77;;;0.77;;
13683;SDS011;6914;53.552;9.908;2022-07-06T14:03:37;2.67;;;0.70;;
13683;SDS011;6914;53.552;9.908;2022-07-06T14:06:08;1.77;;;0.60;;
13683;SDS011;6914;53.552;9.908;2022-07-06T14:08:35;2.80;;;1.17;;
13683;SDS011;6914;53.552;9.908;2022-07-06T14:11:06;2.30;;;0.77;;
13683;SDS011;6914;53.552;9.908;2022-07-06T14:13:34;1.67;;;0.50;;
13683;SDS011;6914;53.552;9.908;2022-07-06T14:16:02;0.80;;;0.57;;
13683;SDS011;6914;53.552;9.908;2022-07-06T14:18:30;1.90;;;0.77;;
13683;SDS011;6914;53.552;9.908;2022-07-06T14:20:57;1.63;;;0.60;;
13683;SDS011;6914;53.552;9.908;2022-07-06T14:23:26;1.70;;;0.70;;
13683;SDS011;6914;53.552;9.908;2022-07-06T14:25:55;1.00;;;0.60;;
13683;SDS011;6914;53.552;9.908;2022-07-06T14:28:23;4.73;;;0.70;;
13683;SDS011;6914;53.552;9.908;2022-07-06T14:30:51;1.57;;;0.50;;
13683;SDS011;6914;53.552;9.908;2022-07-06T14:33:18;2.80;;;0.80;;
13683;SDS011;6914;53.552;9.908;2022-07-06T14:35:46;2.20;;;0.50;;
13683;SDS011;6914;53.552;9.908;2022-07-06T14:38:14;4.53;;;0.70;;
13683;SDS011;6914;53.552;9.908;2022-07-06T14:40:42;10.30;;;0.80;;
13683;SDS011;6914;53.552;9.908;2022-07-06T14:43:14;3.87;;;0.67;;
13683;SDS011;6914;53.552;9.908;2022-07-06T14:45:46;14.77;;;0.80;;
13683;SDS011;6914;53.552;9.908;2022-07-06T14:48:14;1.50;;;0.83;;
13683;SDS011;6914;53.552;9.908;2022-07-06T14:50:42;1.83;;;0.60;;
13683;SDS011;6914;53.552;9.908;2022-07-06T14:53:10;8.87;;;0.90;;
13683;SDS011;6914;53.552;9.908;2022-07-06T14:55:37;4.27;;;1.20;;
13683;SDS011;6914;53.552;9.908;2022-07-06T14:58:04;3.50;;;0.77;;
13683;SDS011;6914;53.552;9.908;2022-07-06T15:00:34;2.90;;;0.70;;
13683;SDS011;6914;53.552;9.908;2022-07-06T15:03:03;0.80;;;0.57;;
13683;SDS011;6914;53.552;9.908;2022-07-06T15:05:31;1.20;;;0.70;;
13683;SDS011;6914;53.552;9.908;2022-07-06T15:07:59;3.03;;;0.60;;
13683;SDS011;6914;53.552;9.908;2022-07-06T15:10:26;2.03;;;0.67;;
13683;SDS011;6914;53.552;9.908;2022-07-06T15:12:53;2.53;;;0.83;;